Time;durP1;ratioP1;P1;durP2;ratioP2;P2;SDS_P1;SDS_P2;PMS_P1;PMS_P2;Temp;Humidity;BMP_temperature;BMP_pressure;BME280_temperature;BME280_humidity;BME280_pressure;Samples;Min_cycle;Max_cycle;Signal;HPM_P1;HPM_P2
2021/01/22 00:00:01;;;;;;;13.43;8.03;;;5.70;99.90;;;;;;4977890;28;20960;-51
2021/01/22 00:02:27;;;;;;;13.13;7.47;;;5.50;99.90;;;;;;4977695;28;20483;-51
2021/01/22 00:04:54;;;;;;;12.07;8.40;;;5.60;99.90;;;;;;4977718;28;21025;-51
2021/01/22 00:07:20;;;;;;;13.73;8.73;;;5.60;99.90;;;;;;4978037;28;20468;-51
2021/01/22 00:09:47;;;;;;;11.93;8.00;;;5.70;99.90;;;;;;4977898;28;20447;-51
2021/01/22 00:12:13;;;;;;;11.30;8.03;;;5.70;99.90;;;;;;4977294;28;20902;-51
2021/01/22 00:14:41;;;;;;;10.23;7.13;;;5.80;99.90;;;;;;4977585;28;20451;-51
2021/01/22 00:17:07;;;;;;;9.90;6.50;;;5.80;99.90;;;;;;4978051;28;20481;-51
2021/01/22 00:19:34;;;;;;;8.10;6.57;;;5.80;99.90;;;;;;4978175;28;20463;-51
2021/01/22 00:22:00;;;;;;;10.97;7.07;;;5.80;99.90;;;;;;4978036;28;20459;-51
2021/01/22 00:24:27;;;;;;;10.70;6.50;;;5.70;99.90;;;;;;4977410;28;20494;-51
2021/01/22 00:26:53;;;;;;;7.47;5.80;;;5.70;99.90;;;;;;4977820;28;20475;-51
2021/01/22 00:29:20;;;;;;;9.93;5.90;;;5.70;99.90;;;;;;4977706;28;21001;-51
2021/01/22 00:31:47;;;;;;;9.13;6.17;;;5.60;99.90;;;;;;4977990;28;20457;-51
2021/01/22 00:34:13;;;;;;;8.50;5.60;;;5.50;99.90;;;;;;4977540;28;20453;-51
2021/01/22 00:36:40;;;;;;;8.37;5.47;;;5.60;99.90;;;;;;4977448;28;20458;-51
2021/01/22 00:39:07;;;;;;;7.67;5.70;;;5.60;99.90;;;;;;4977427;28;20443;-51
2021/01/22 00:41:33;;;;;;;7.83;5.20;;;5.60;99.90;;;;;;4977723;28;20458;-52
2021/01/22 00:44:00;;;;;;;6.87;4.80;;;5.60;99.90;;;;;;4977697;28;20487;-51
2021/01/22 00:46:26;;;;;;;7.67;5.20;;;5.60;99.90;;;;;;4977197;28;20936;-51
2021/01/22 00:48:54;;;;;;;8.20;5.60;;;5.60;99.90;;;;;;4977411;28;20480;-51
2021/01/22 00:51:20;;;;;;;10.90;5.57;;;5.50;99.90;;;;;;4977797;28;20516;-51
2021/01/22 00:53:47;;;;;;;8.37;5.23;;;5.60;99.90;;;;;;4977108;28;20514;-51
2021/01/22 00:56:13;;;;;;;9.37;6.10;;;5.50;99.90;;;;;;4975415;28;20455;-51
2021/01/22 00:58:41;;;;;;;11.47;6.03;;;5.60;99.90;;;;;;4974359;28;20475;-51
2021/01/22 01:01:07;;;;;;;10.03;6.40;;;5.50;99.90;;;;;;4974394;28;20456;-51
2021/01/22 01:03:34;;;;;;;10.20;6.40;;;5.30;99.90;;;;;;4974142;28;20491;-50
2021/01/22 01:06:01;;;;;;;8.40;4.90;;;5.20;99.90;;;;;;4974503;28;20459;-50
2021/01/22 01:08:28;;;;;;;5.10;3.50;;;5.10;99.90;;;;;;4973901;28;20479;-50
2021/01/22 01:10:54;;;;;;;4.60;2.93;;;5.20;99.90;;;;;;4973909;28;20949;-50
2021/01/22 01:13:21;;;;;;;2.97;2.40;;;5.40;99.90;;;;;;4974439;28;20459;-51
2021/01/22 01:15:47;;;;;;;3.70;2.50;;;5.50;99.90;;;;;;4974008;28;21015;-51
2021/01/22 01:18:14;;;;;;;3.50;2.73;;;5.80;99.90;;;;;;4974343;28;20479;-51
2021/01/22 01:20:40;;;;;;;5.03;2.97;;;6.20;99.90;;;;;;4974297;28;20455;-51
2021/01/22 01:23:14;;;;;;;3.77;2.80;;;6.40;99.90;;;;;;4973478;28;20490;-51
2021/01/22 01:25:41;;;;;;;4.77;3.67;;;6.40;99.90;;;;;;4973755;28;20543;-51
2021/01/22 01:28:07;;;;;;;3.80;3.30;;;6.40;99.90;;;;;;4973825;28;20468;-51
2021/01/22 01:30:35;;;;;;;6.70;5.13;;;6.40;99.90;;;;;;4974016;28;20490;-51
2021/01/22 01:33:02;;;;;;;7.17;5.77;;;6.50;99.90;;;;;;4973543;28;20814;-51
2021/01/22 01:35:29;;;;;;;9.40;6.13;;;6.50;99.90;;;;;;4973663;28;20455;-51
2021/01/22 01:37:55;;;;;;;11.53;6.80;;;6.40;99.90;;;;;;4973227;28;21268;-51
2021/01/22 01:40:23;;;;;;;11.07;7.30;;;6.20;99.90;;;;;;4973531;28;20470;-51
2021/01/22 01:42:49;;;;;;;11.53;7.50;;;6.00;99.90;;;;;;4974098;28;20930;-51
2021/01/22 01:45:17;;;;;;;11.40;7.27;;;6.00;99.90;;;;;;4973514;28;20462;-50
2021/01/22 01:47:43;;;;;;;10.67;6.57;;;6.10;99.90;;;;;;4973512;28;20471;-51
2021/01/22 01:50:12;;;;;;;10.00;6.67;;;6.00;99.90;;;;;;4973303;28;20451;-51
2021/01/22 01:52:39;;;;;;;7.93;5.50;;;6.00;99.90;;;;;;4973587;28;20452;-51
2021/01/22 01:55:07;;;;;;;7.30;5.27;;;5.80;99.90;;;;;;4973414;28;20455;-50
2021/01/22 01:57:34;;;;;;;9.43;5.97;;;5.70;99.90;;;;;;4973317;28;20474;-51
2021/01/22 02:00:01;;;;;;;6.53;4.70;;;5.80;99.90;;;;;;4973812;28;20454;-51
2021/01/22 02:02:28;;;;;;;6.67;4.20;;;5.80;99.90;;;;;;4973125;28;20506;-51
2021/01/22 02:04:55;;;;;;;5.10;3.70;;;6.00;99.90;;;;;;4972253;28;20453;-50
2021/01/22 02:07:22;;;;;;;4.47;3.60;;;6.30;99.90;;;;;;4972690;28;20471;-51
2021/01/22 02:09:49;;;;;;;4.57;3.50;;;6.40;99.90;;;;;;4973536;28;20459;-51
2021/01/22 02:12:16;;;;;;;4.90;3.67;;;6.30;99.90;;;;;;4973003;28;20457;-50
2021/01/22 02:14:44;;;;;;;7.50;4.70;;;6.40;99.90;;;;;;4953880;29;20958;-51
2021/01/22 02:17:11;;;;;;;5.43;4.07;;;6.40;99.90;;;;;;4971366;28;21076;-50
2021/01/22 02:20:04;;;;;;;8.80;4.90;;;6.30;99.90;;;;;;4953748;29;20449;-51
2021/01/22 02:22:31;;;;;;;5.47;3.90;;;6.40;99.90;;;;;;4962741;28;20463;-50
2021/01/22 02:24:59;;;;;;;7.83;5.33;;;6.30;99.90;;;;;;4972270;28;20455;-51
2021/01/22 02:27:27;;;;;;;7.43;5.33;;;6.20;99.90;;;;;;4972717;28;20479;-50
2021/01/22 02:29:54;;;;;;;9.17;5.70;;;5.90;99.90;;;;;;4972913;28;20458;-51
2021/01/22 02:32:21;;;;;;;6.30;4.90;;;5.90;99.90;;;;;;4971586;28;20455;-51
2021/01/22 02:34:50;;;;;;;6.47;5.10;;;5.90;99.90;;;;;;4957361;28;20456;-51
2021/01/22 02:37:18;;;;;;;7.70;5.20;;;6.20;99.90;;;;;;4972808;28;20469;-51
2021/01/22 02:39:49;;;;;;;7.47;5.27;;;6.00;99.90;;;;;;4972105;28;20458;-51
2021/01/22 02:42:16;;;;;;;7.90;5.10;;;5.90;99.90;;;;;;4972384;28;20957;-51
2021/01/22 02:44:45;;;;;;;6.87;4.43;;;5.90;99.90;;;;;;4972348;28;20492;-51
2021/01/22 02:47:14;;;;;;;8.10;4.93;;;5.80;99.90;;;;;;4972058;28;20570;-51
2021/01/22 02:49:41;;;;;;;7.60;5.17;;;5.90;99.90;;;;;;4960315;28;20454;-51
2021/01/22 02:52:09;;;;;;;4.27;3.87;;;6.00;99.90;;;;;;4972613;28;20458;-51
2021/01/22 02:54:36;;;;;;;5.53;3.93;;;6.00;99.90;;;;;;4971617;28;20524;-51
2021/01/22 02:57:11;;;;;;;5.40;3.70;;;6.00;99.90;;;;;;4972110;28;20534;-51
2021/01/22 02:59:48;;;;;;;3.40;3.10;;;6.00;99.90;;;;;;4972683;28;20543;-51
2021/01/22 03:02:19;;;;;;;3.40;3.07;;;6.10;99.90;;;;;;4969490;28;20464;-51
2021/01/22 03:04:47;;;;;;;4.90;3.30;;;6.10;99.90;;;;;;4972078;28;20948;-51
2021/01/22 03:07:22;;;;;;;5.10;3.73;;;6.20;99.90;;;;;;4971536;28;20486;-51
2021/01/22 03:09:50;;;;;;;3.87;3.47;;;6.10;99.90;;;;;;4972475;28;20600;-51
2021/01/22 03:12:17;;;;;;;3.90;3.23;;;6.10;99.90;;;;;;4972029;28;20451;-51
2021/01/22 03:14:45;;;;;;;4.17;3.33;;;6.00;99.90;;;;;;4971307;28;20455;-51
2021/01/22 03:17:11;;;;;;;4.83;3.70;;;5.90;99.90;;;;;;4971914;28;20992;-51
2021/01/22 03:19:46;;;;;;;6.07;4.40;;;5.80;99.90;;;;;;4971385;28;20465;-51
2021/01/22 03:22:13;;;;;;;3.40;3.07;;;5.70;99.90;;;;;;4971638;28;20457;-51
2021/01/22 03:24:40;;;;;;;6.03;3.80;;;5.80;99.90;;;;;;4971457;28;20898;-51
2021/01/22 03:27:06;;;;;;;4.90;3.87;;;5.70;99.90;;;;;;4971035;28;20489;-51
2021/01/22 03:29:34;;;;;;;4.57;3.50;;;5.60;99.90;;;;;;4972175;28;20816;-51
2021/01/22 03:32:02;;;;;;;4.80;3.83;;;5.50;99.90;;;;;;4972005;28;20955;-51
2021/01/22 03:34:29;;;;;;;5.33;3.87;;;5.50;99.90;;;;;;4971347;28;20466;-51
2021/01/22 03:36:57;;;;;;;7.03;4.33;;;5.50;99.90;;;;;;4971252;28;20488;-51
2021/01/22 03:39:24;;;;;;;5.63;4.53;;;5.60;99.90;;;;;;4972167;28;20967;-51
2021/01/22 03:41:50;;;;;;;6.70;5.00;;;5.50;99.90;;;;;;4971440;28;20882;-51
2021/01/22 03:44:17;;;;;;;9.60;4.50;;;5.40;99.90;;;;;;4971502;28;20567;-52
2021/01/22 03:46:44;;;;;;;5.50;4.27;;;5.40;99.90;;;;;;4971400;28;20878;-51
2021/01/22 03:49:11;;;;;;;6.40;4.13;;;5.40;99.90;;;;;;4971182;28;20952;-51
2021/01/22 03:51:38;;;;;;;6.33;4.90;;;5.30;99.90;;;;;;4971736;28;20455;-51
2021/01/22 03:54:05;;;;;;;7.20;4.70;;;5.50;99.90;;;;;;4970733;28;20947;-51
2021/01/22 03:56:32;;;;;;;4.90;3.93;;;5.50;99.90;;;;;;4971613;28;20464;-51
2021/01/22 03:58:59;;;;;;;5.43;3.43;;;5.40;99.90;;;;;;4971764;28;20457;-51
2021/01/22 04:01:28;;;;;;;5.50;3.23;;;5.50;99.90;;;;;;4971365;28;20930;-51
2021/01/22 04:03:54;;;;;;;2.80;2.40;;;5.50;99.90;;;;;;4971086;28;20578;-51
2021/01/22 04:06:21;;;;;;;5.53;2.97;;;5.80;99.90;;;;;;4971787;28;20450;-51
2021/01/22 04:08:49;;;;;;;3.03;2.67;;;6.20;99.90;;;;;;4971002;28;20801;-51
2021/01/22 04:11:16;;;;;;;4.60;2.03;;;6.30;99.90;;;;;;4971681;28;20463;-50
2021/01/22 04:13:43;;;;;;;2.93;2.53;;;6.60;99.90;;;;;;4971626;28;20451;-51
2021/01/22 04:16:11;;;;;;;6.47;2.83;;;6.60;99.90;;;;;;4971032;28;20451;-50
2021/01/22 04:18:41;;;;;;;3.40;2.33;;;6.50;99.90;;;;;;4971183;28;20553;-51
2021/01/22 04:21:07;;;;;;;3.53;2.40;;;6.60;99.90;;;;;;4971859;28;20883;-50
2021/01/22 04:23:35;;;;;;;2.90;2.60;;;6.40;99.90;;;;;;4970814;28;20533;-51
2021/01/22 04:26:01;;;;;;;1.80;1.70;;;6.30;99.90;;;;;;4971364;28;20460;-50
2021/01/22 04:28:28;;;;;;;4.30;2.83;;;6.40;99.90;;;;;;4971814;28;20479;-51
2021/01/22 04:30:55;;;;;;;3.13;1.53;;;6.50;99.90;;;;;;4973169;28;20451;-51
2021/01/22 04:33:21;;;;;;;2.30;1.83;;;6.50;99.90;;;;;;4975095;28;20942;-51
2021/01/22 04:35:48;;;;;;;1.40;1.30;;;6.60;99.90;;;;;;4974581;28;20451;-51
2021/01/22 04:38:15;;;;;;;1.37;1.17;;;6.70;99.90;;;;;;4974751;28;20475;-50
2021/01/22 04:40:42;;;;;;;2.20;1.13;;;6.80;99.90;;;;;;4975125;28;20952;-51
2021/01/22 04:43:09;;;;;;;1.90;1.00;;;6.80;99.90;;;;;;4974681;28;20482;-51
2021/01/22 04:45:36;;;;;;;1.37;1.03;;;6.90;99.90;;;;;;4974766;28;20455;-51
2021/01/22 04:48:04;;;;;;;1.40;1.20;;;7.00;99.90;;;;;;4974438;28;20510;-51
2021/01/22 04:50:32;;;;;;;1.23;1.10;;;7.10;99.90;;;;;;4974974;28;20485;-51
2021/01/22 04:53:03;;;;;;;1.10;0.90;;;7.10;99.90;;;;;;4974479;28;20451;-50
2021/01/22 04:55:32;;;;;;;0.90;0.80;;;6.90;99.90;;;;;;4974520;28;20605;-51
2021/01/22 04:58:02;;;;;;;1.87;0.83;;;6.70;99.90;;;;;;4974309;28;20479;-51
2021/01/22 05:00:30;;;;;;;1.10;0.80;;;6.70;99.90;;;;;;4974510;28;21059;-51
2021/01/22 05:02:57;;;;;;;1.00;0.70;;;6.70;99.90;;;;;;4974509;28;20450;-50
2021/01/22 05:05:23;;;;;;;0.60;0.60;;;6.60;99.90;;;;;;4974295;28;20452;-51
2021/01/22 05:07:50;;;;;;;1.33;0.60;;;6.70;99.90;;;;;;4974336;28;20833;-51
2021/01/22 05:10:16;;;;;;;1.13;0.83;;;6.90;99.90;;;;;;4974341;28;20466;-51
2021/01/22 05:12:43;;;;;;;1.17;0.80;;;6.90;99.90;;;;;;4973983;28;20984;-51
2021/01/22 05:15:15;;;;;;;0.90;0.77;;;6.90;99.90;;;;;;4973760;28;20455;-51
2021/01/22 05:17:55;;;;;;;1.10;0.80;;;7.00;99.90;;;;;;4973822;28;20485;-51
2021/01/22 05:20:33;;;;;;;1.20;0.80;;;7.20;99.90;;;;;;4973474;28;20480;-51
2021/01/22 05:23:00;;;;;;;1.43;1.00;;;7.30;99.90;;;;;;4972548;28;20451;-51
2021/01/22 05:25:27;;;;;;;1.53;1.03;;;7.40;99.90;;;;;;4973884;28;20546;-51
2021/01/22 05:27:54;;;;;;;1.43;1.27;;;7.60;99.90;;;;;;4974071;28;20475;-51
2021/01/22 05:30:23;;;;;;;0.60;0.60;;;7.60;99.90;;;;;;4973973;28;20452;-51
2021/01/22 05:32:50;;;;;;;4.00;1.20;;;7.50;99.90;;;;;;4974248;28;20836;-51
2021/01/22 05:35:30;;;;;;;0.60;0.60;;;7.40;99.90;;;;;;4973366;28;20571;-51
2021/01/22 05:37:56;;;;;;;1.27;1.07;;;7.60;99.90;;;;;;4973778;28;20484;-51
2021/01/22 05:40:24;;;;;;;3.43;0.83;;;7.60;99.90;;;;;;4973372;28;20455;-51
2021/01/22 05:42:52;;;;;;;0.70;0.60;;;7.50;99.90;;;;;;4972263;28;20459;-51
2021/01/22 05:45:36;;;;;;;1.10;0.90;;;7.40;99.90;;;;;;4991879;28;20829;-51
2021/01/22 05:48:04;;;;;;;0.73;0.70;;;7.30;99.90;;;;;;4985153;28;20570;-51
2021/01/22 05:50:45;;;;;;;0.90;0.60;;;7.10;99.90;;;;;;4965576;28;20452;-51
2021/01/22 05:53:12;;;;;;;0.80;0.57;;;7.10;99.90;;;;;;4956037;28;20534;-51
2021/01/22 05:55:39;;;;;;;1.60;0.67;;;7.30;99.90;;;;;;4973482;28;20550;-51
2021/01/22 05:58:06;;;;;;;0.80;0.80;;;7.40;99.90;;;;;;4973475;28;20467;-51
2021/01/22 06:00:33;;;;;;;0.80;0.80;;;7.40;99.90;;;;;;4973058;28;20534;-52
2021/01/22 06:02:59;;;;;;;1.20;1.00;;;7.70;99.90;;;;;;4971364;28;20688;-51
2021/01/22 06:05:27;;;;;;;0.93;0.77;;;7.60;99.90;;;;;;4973341;28;20462;-51
2021/01/22 06:08:08;;;;;;;0.90;0.77;;;7.40;99.90;;;;;;4997084;23;20874;-49
2021/01/22 06:10:39;;;;;;;1.10;0.80;;;7.30;99.90;;;;;;4983805;28;20463;-49
2021/01/22 06:13:08;;;;;;;1.00;0.90;;;7.30;99.90;;;;;;4973325;28;20530;-49
2021/01/22 06:15:36;;;;;;;1.10;1.00;;;7.30;99.90;;;;;;4988999;28;20865;-48
2021/01/22 06:18:03;;;;;;;1.30;1.20;;;7.30;99.90;;;;;;4984837;28;20554;-48
2021/01/22 06:20:36;;;;;;;2.60;1.67;;;7.30;99.90;;;;;;4998055;28;20457;-47
2021/01/22 06:23:10;;;;;;;1.77;1.63;;;7.30;99.90;;;;;;5011888;28;20533;-47
2021/01/22 06:25:38;;;;;;;4.40;2.30;;;7.00;99.90;;;;;;4996119;28;20529;-48
2021/01/22 06:28:05;;;;;;;2.33;2.13;;;7.10;99.90;;;;;;4987664;28;20501;-47
2021/01/22 06:30:33;;;;;;;8.00;4.57;;;7.00;99.90;;;;;;4991968;28;20460;-49
2021/01/22 06:33:01;;;;;;;7.10;3.60;;;6.80;99.90;;;;;;4990757;28;20930;-48
2021/01/22 06:35:30;;;;;;;8.70;3.87;;;6.60;99.90;;;;;;4988793;28;20884;-48
2021/01/22 06:37:58;;;;;;;7.27;3.40;;;6.60;99.90;;;;;;4982600;28;20534;-49
2021/01/22 06:40:25;;;;;;;4.87;3.17;;;6.50;99.90;;;;;;4974980;28;20511;-48
2021/01/22 06:42:53;;;;;;;6.73;3.30;;;6.50;99.90;;;;;;4992109;28;20974;-49
2021/01/22 06:45:22;;;;;;;7.63;3.70;;;6.60;99.90;;;;;;4989024;28;20462;-49
2021/01/22 06:48:00;;;;;;;8.33;4.00;;;6.60;99.90;;;;;;4985292;28;20482;-49
2021/01/22 06:50:27;;;;;;;7.00;3.83;;;6.60;99.90;;;;;;4989505;28;20450;-48
2021/01/22 06:53:05;;;;;;;5.90;3.70;;;6.50;99.90;;;;;;4972763;28;20483;-49
2021/01/22 06:55:33;;;;;;;7.23;4.00;;;6.40;99.90;;;;;;4980954;28;20466;-48
2021/01/22 06:58:23;;;;;;;6.23;3.83;;;6.40;99.90;;;;;;4991422;28;20470;-48
2021/01/22 07:00:52;;;;;;;5.13;3.50;;;6.30;99.90;;;;;;4983348;28;20541;-49
2021/01/22 07:03:50;;;;;;;5.00;3.87;;;6.30;99.90;;;;;;4991009;28;21365;-49
2021/01/22 07:06:48;;;;;;;6.90;3.47;;;6.30;99.90;;;;;;4983552;28;20579;-48
2021/01/22 07:09:16;;;;;;;3.50;2.63;;;6.20;99.90;;;;;;4990376;28;20486;-49
2021/01/22 07:12:06;;;;;;;3.20;2.30;;;6.10;99.90;;;;;;4987934;28;20493;-49
2021/01/22 07:14:34;;;;;;;3.23;2.30;;;6.10;99.90;;;;;;4977153;28;20441;-48
2021/01/22 07:17:20;;;;;;;2.43;1.83;;;6.00;99.90;;;;;;4984414;28;20445;-48
2021/01/22 07:19:55;;;;;;;3.10;1.80;;;6.10;99.90;;;;;;4992214;28;20477;-48
2021/01/22 07:22:22;;;;;;;4.27;2.67;;;6.10;99.90;;;;;;4989553;28;20450;-49
2021/01/22 07:24:52;;;;;;;3.63;2.30;;;6.10;99.90;;;;;;4990480;28;20518;-48
2021/01/22 07:27:19;;;;;;;4.43;2.60;;;6.10;99.90;;;;;;4982430;28;20459;-49
2021/01/22 07:30:10;;;;;;;7.30;2.73;;;6.20;99.90;;;;;;4989498;28;20477;-49
2021/01/22 07:32:37;;;;;;;8.00;4.40;;;6.30;99.90;;;;;;4971885;28;20947;-49
2021/01/22 07:35:05;;;;;;;8.40;4.40;;;6.30;99.90;;;;;;4981269;28;20978;-48
2021/01/22 07:37:38;;;;;;;8.70;5.43;;;6.20;99.90;;;;;;4984268;28;20451;-49
2021/01/22 07:40:12;;;;;;;11.07;5.63;;;6.20;99.90;;;;;;4979569;28;20458;-49
2021/01/22 07:42:39;;;;;;;9.83;5.67;;;6.30;99.90;;;;;;4990594;28;20456;-48
2021/01/22 07:45:11;;;;;;;10.03;5.60;;;6.40;99.90;;;;;;4984749;28;20904;-49
2021/01/22 07:47:40;;;;;;;10.10;6.20;;;6.50;99.90;;;;;;4987902;28;20483;-49
2021/01/22 07:50:08;;;;;;;11.27;6.50;;;6.60;99.90;;;;;;4989483;28;20494;-49
2021/01/22 07:52:43;;;;;;;9.47;5.17;;;6.80;99.90;;;;;;4990267;28;20497;-49
2021/01/22 07:55:18;;;;;;;6.33;4.40;;;7.00;99.90;;;;;;4986270;28;20458;-49
2021/01/22 07:57:45;;;;;;;7.23;4.50;;;7.30;99.90;;;;;;4986586;28;20464;-49
2021/01/22 08:00:14;;;;;;;7.30;5.17;;;7.50;99.90;;;;;;4987522;28;20518;-49
2021/01/22 08:02:55;;;;;;;8.70;4.67;;;7.40;99.90;;;;;;4988912;28;20474;-49
2021/01/22 08:05:30;;;;;;;6.43;3.90;;;7.50;99.90;;;;;;4983707;28;20490;-48
2021/01/22 08:07:56;;;;;;;5.93;3.83;;;7.50;99.90;;;;;;4992923;28;20934;-49
2021/01/22 08:10:28;;;;;;;5.60;2.43;;;7.30;99.90;;;;;;4994779;28;20450;-49
2021/01/22 08:12:56;;;;;;;6.90;2.60;;;7.40;99.90;;;;;;4994880;28;20493;-49
2021/01/22 08:15:23;;;;;;;4.67;2.87;;;7.10;99.90;;;;;;4993960;28;20453;-48
2021/01/22 08:17:50;;;;;;;6.20;3.47;;;7.10;99.90;;;;;;4994338;28;20483;-49
2021/01/22 08:20:19;;;;;;;4.90;2.90;;;7.20;99.90;;;;;;4993513;28;20454;-49
2021/01/22 08:22:51;;;;;;;4.43;3.03;;;7.00;99.90;;;;;;4994173;28;20509;-49
2021/01/22 08:25:27;;;;;;;4.77;2.93;;;6.80;99.90;;;;;;4994188;28;20580;-48
2021/01/22 08:27:57;;;;;;;9.23;3.00;;;6.80;99.90;;;;;;4986587;28;20483;-48
2021/01/22 08:30:25;;;;;;;6.30;3.60;;;6.90;99.90;;;;;;4992514;28;20461;-49
2021/01/22 08:32:52;;;;;;;6.60;4.17;;;7.30;99.90;;;;;;4994476;28;20958;-49
2021/01/22 08:35:20;;;;;;;8.27;4.00;;;7.60;99.90;;;;;;4994426;28;20449;-49
2021/01/22 08:37:48;;;;;;;5.67;4.00;;;7.80;99.90;;;;;;4994547;28;20543;-49
2021/01/22 08:40:15;;;;;;;2.97;2.67;;;7.90;99.90;;;;;;4994306;28;20797;-49
2021/01/22 08:42:57;;;;;;;4.03;1.97;;;8.40;99.90;;;;;;4991395;28;20458;-49
2021/01/22 08:45:24;;;;;;;3.07;1.90;;;8.70;99.90;;;;;;4983948;28;20571;-49
2021/01/22 08:47:51;;;;;;;2.97;1.43;;;8.90;99.90;;;;;;4983672;28;20478;-49
2021/01/22 08:50:18;;;;;;;3.57;1.40;;;9.10;99.90;;;;;;4985898;28;20455;-49
2021/01/22 08:52:45;;;;;;;1.53;1.10;;;9.40;99.90;;;;;;4974730;28;20546;-49
2021/01/22 08:55:19;;;;;;;1.73;1.00;;;9.80;99.90;;;;;;4988910;28;20457;-49
2021/01/22 08:58:00;;;;;;;1.17;1.00;;;10.10;99.90;;;;;;4991770;28;20485;-49
2021/01/22 09:00:27;;;;;;;2.10;1.60;;;10.80;99.90;;;;;;4993125;28;20468;-49
2021/01/22 09:02:54;;;;;;;1.10;1.00;;;11.10;99.90;;;;;;4993622;28;20505;-50
2021/01/22 09:05:20;;;;;;;1.40;1.10;;;11.20;99.90;;;;;;4993290;28;20490;-49
2021/01/22 09:08:04;;;;;;;1.60;1.10;;;11.30;99.90;;;;;;4993239;28;20888;-49
2021/01/22 09:10:31;;;;;;;1.93;1.40;;;11.50;99.90;;;;;;4993646;28;20454;-49
2021/01/22 09:13:10;;;;;;;1.83;1.40;;;11.80;99.90;;;;;;5008190;28;20847;-49
2021/01/22 09:15:37;;;;;;;1.20;1.00;;;11.90;99.90;;;;;;4974126;28;20875;-49
2021/01/22 09:18:14;;;;;;;3.00;1.50;;;11.60;99.90;;;;;;4973046;28;20471;-50
2021/01/22 09:20:43;;;;;;;1.27;1.13;;;11.50;99.90;;;;;;4974261;28;20493;-50
2021/01/22 09:23:09;;;;;;;2.07;1.30;;;11.90;99.90;;;;;;4974188;28;20546;-50
2021/01/22 09:25:36;;;;;;;1.60;1.20;;;12.20;99.90;;;;;;4977910;28;20450;-50
2021/01/22 09:28:03;;;;;;;3.17;2.20;;;12.70;99.90;;;;;;4993342;28;20485;-50
2021/01/22 09:30:30;;;;;;;1.70;1.20;;;13.10;99.90;;;;;;4992946;28;20832;-50
2021/01/22 09:32:58;;;;;;;2.23;1.80;;;13.40;99.90;;;;;;4993648;28;20524;-50
2021/01/22 09:35:27;;;;;;;2.20;1.50;;;13.70;99.90;;;;;;4993544;28;20450;-51
2021/01/22 09:37:53;;;;;;;3.70;1.40;;;13.80;99.90;;;;;;4993581;28;20479;-50
2021/01/22 09:40:21;;;;;;;1.40;1.30;;;14.00;99.90;;;;;;4993567;28;20461;-50
2021/01/22 09:42:48;;;;;;;1.87;1.40;;;13.90;99.90;;;;;;4988244;28;20451;-50
2021/01/22 09:45:15;;;;;;;3.67;1.17;;;13.90;99.90;;;;;;4982427;28;21007;-50
2021/01/22 09:47:43;;;;;;;1.87;1.00;;;13.70;99.90;;;;;;4993154;28;20832;-50
2021/01/22 09:50:12;;;;;;;1.20;1.00;;;13.60;99.90;;;;;;4993301;28;20513;-50
2021/01/22 09:52:38;;;;;;;7.70;1.47;;;13.40;99.90;;;;;;4993373;28;20457;-50
2021/01/22 09:55:07;;;;;;;1.00;0.80;;;13.40;99.90;;;;;;4992972;28;20501;-50
2021/01/22 09:57:34;;;;;;;1.30;1.00;;;13.30;99.70;;;;;;4982906;28;20455;-50
2021/01/22 10:00:00;;;;;;;1.13;0.90;;;13.40;99.50;;;;;;4973850;28;20455;-50
2021/01/22 10:02:27;;;;;;;1.10;1.00;;;13.60;99.60;;;;;;4973866;28;20451;-50
2021/01/22 10:04:54;;;;;;;0.80;0.80;;;13.50;99.40;;;;;;4973395;28;20495;-50
2021/01/22 10:07:20;;;;;;;1.10;1.00;;;13.40;99.40;;;;;;4973580;28;20455;-50
2021/01/22 10:09:47;;;;;;;1.13;0.90;;;13.50;99.00;;;;;;4973328;28;20542;-50
2021/01/22 10:12:13;;;;;;;1.00;0.90;;;13.60;99.10;;;;;;4973454;28;20455;-50
2021/01/22 10:14:41;;;;;;;2.20;0.97;;;13.70;98.90;;;;;;4989733;28;20451;-50
2021/01/22 10:17:07;;;;;;;2.13;1.43;;;13.70;98.50;;;;;;4992940;28;20458;-50
2021/01/22 10:19:34;;;;;;;2.13;1.30;;;13.40;98.60;;;;;;4992742;28;20478;-50
2021/01/22 10:22:01;;;;;;;1.17;1.07;;;13.40;98.50;;;;;;4993081;28;20963;-50
2021/01/22 10:24:28;;;;;;;2.40;1.30;;;13.70;98.80;;;;;;4992619;28;20706;-50
2021/01/22 10:26:54;;;;;;;4.20;2.10;;;14.20;97.50;;;;;;4992723;28;20809;-50
2021/01/22 10:29:21;;;;;;;3.23;1.10;;;14.80;97.30;;;;;;4990703;28;20470;-50
2021/01/22 10:31:48;;;;;;;2.07;0.90;;;15.30;96.20;;;;;;4992568;28;20454;-51
2021/01/22 10:34:15;;;;;;;1.80;1.20;;;15.80;95.90;;;;;;4992113;28;21006;-50
2021/01/22 10:36:42;;;;;;;1.63;1.20;;;16.20;94.00;;;;;;4992871;28;20446;-50
2021/01/22 10:39:10;;;;;;;2.17;1.13;;;16.00;93.90;;;;;;4992224;28;20478;-50
2021/01/22 10:41:37;;;;;;;1.67;1.00;;;15.90;93.70;;;;;;4992508;28;20466;-50
2021/01/22 10:44:04;;;;;;;2.43;1.17;;;15.80;94.00;;;;;;4991955;28;20493;-50
2021/01/22 10:46:31;;;;;;;1.10;1.00;;;15.80;93.90;;;;;;4990654;28;20457;-50
2021/01/22 10:48:58;;;;;;;2.05;1.30;;;15.80;93.50;;;;;;4990841;28;20446;-48
2021/01/22 10:51:25;;;;;;;2.73;1.30;;;15.70;93.00;;;;;;4991406;28;20257;-47
2021/01/22 10:53:51;;;;;;;1.60;1.33;;;15.80;93.00;;;;;;4991341;28;20767;-48
2021/01/22 10:56:19;;;;;;;1.50;1.40;;;15.80;92.80;;;;;;4989048;28;20603;-47
2021/01/22 10:58:45;;;;;;;3.70;1.40;;;15.60;92.80;;;;;;4972006;28;20531;-48
2021/01/22 11:01:12;;;;;;;1.90;1.20;;;15.70;92.30;;;;;;4971858;28;20957;-47
2021/01/22 11:03:39;;;;;;;1.13;0.90;;;15.80;92.00;;;;;;4977984;28;20478;-48
2021/01/22 11:06:06;;;;;;;3.60;1.70;;;15.40;92.00;;;;;;4988858;28;20450;-48
2021/01/22 11:08:33;;;;;;;1.47;1.37;;;15.60;91.30;;;;;;4991243;28;20681;-48
2021/01/22 11:10:59;;;;;;;2.50;1.37;;;15.50;91.00;;;;;;4991237;28;20874;-49
2021/01/22 11:13:26;;;;;;;1.87;1.20;;;15.50;91.20;;;;;;4991229;28;20450;-49
2021/01/22 11:15:53;;;;;;;1.83;1.13;;;15.40;91.40;;;;;;4990660;28;20450;-49
2021/01/22 11:18:19;;;;;;;3.33;2.20;;;15.10;91.80;;;;;;4991104;28;20474;-48
2021/01/22 11:20:46;;;;;;;2.23;0.70;;;14.80;92.00;;;;;;4977246;28;20506;-48
2021/01/22 11:23:12;;;;;;;1.43;0.90;;;14.80;91.50;;;;;;4971575;28;20455;-48
2021/01/22 11:25:39;;;;;;;1.33;0.83;;;15.00;91.30;;;;;;4971860;28;20506;-48
2021/01/22 11:28:05;;;;;;;1.80;0.70;;;15.10;90.80;;;;;;4972047;28;20521;-49
2021/01/22 11:30:33;;;;;;;1.70;1.30;;;14.90;90.70;;;;;;4971704;28;20506;-49
2021/01/22 11:32:59;;;;;;;14.97;6.43;;;14.60;90.90;;;;;;4981012;28;20447;-49
2021/01/22 11:35:26;;;;;;;11.33;4.47;;;14.10;91.30;;;;;;4989142;28;20513;-49
2021/01/22 11:37:53;;;;;;;14.17;6.03;;;13.80;91.40;;;;;;4991106;28;20479;-49
2021/01/22 11:40:19;;;;;;;14.90;5.97;;;13.70;91.80;;;;;;4990086;28;20458;-49
2021/01/22 11:42:47;;;;;;;16.60;7.10;;;13.50;92.00;;;;;;4991069;28;20603;-49
2021/01/22 11:45:15;;;;;;;8.90;4.37;;;13.30;92.20;;;;;;4990738;28;20485;-49
2021/01/22 11:47:43;;;;;;;1.93;1.30;;;13.10;92.60;;;;;;4990830;28;21093;-49
2021/01/22 11:50:10;;;;;;;1.13;0.80;;;12.90;92.90;;;;;;4990243;28;20963;-49
2021/01/22 11:52:37;;;;;;;0.70;0.60;;;13.00;92.40;;;;;;4989429;28;20454;-49
2021/01/22 11:55:04;;;;;;;1.10;1.00;;;12.90;92.10;;;;;;4990594;28;20975;-49
2021/01/22 11:57:30;;;;;;;0.80;0.60;;;12.60;92.70;;;;;;4990974;28;20455;-49
2021/01/22 11:59:57;;;;;;;0.70;0.53;;;12.40;92.80;;;;;;4990880;28;20486;-49
2021/01/22 12:02:23;;;;;;;0.53;0.40;;;12.60;93.20;;;;;;4990594;28;20463;-50
2021/01/22 12:04:51;;;;;;;4.00;0.60;;;12.50;93.00;;;;;;4989561;28;20528;-49
2021/01/22 12:07:17;;;;;;;0.70;0.50;;;12.40;93.30;;;;;;4990925;28;20555;-49
2021/01/22 12:09:44;;;;;;;1.20;0.50;;;12.30;93.50;;;;;;5010480;23;20509;-52
2021/01/22 12:12:11;;;;;;;0.70;0.70;;;12.10;93.50;;;;;;4990030;28;20442;-51
2021/01/22 12:14:37;;;;;;;1.33;0.80;;;12.00;93.40;;;;;;4990446;28;20442;-51
2021/01/22 12:17:04;;;;;;;1.00;0.70;;;12.20;93.50;;;;;;4990554;28;20982;-51
2021/01/22 12:19:30;;;;;;;0.70;0.70;;;12.30;93.70;;;;;;4990415;28;21053;-51
2021/01/22 12:21:58;;;;;;;0.70;0.60;;;12.50;93.20;;;;;;4978028;28;20455;-51
2021/01/22 12:24:24;;;;;;;1.07;0.70;;;12.40;92.60;;;;;;4973180;28;20991;-50
2021/01/22 12:26:51;;;;;;;0.80;0.60;;;12.40;92.70;;;;;;4980729;28;20466;-51
2021/01/22 12:29:18;;;;;;;0.80;0.60;;;12.30;92.80;;;;;;4990417;28;20474;-51
2021/01/22 12:31:44;;;;;;;1.00;0.80;;;12.40;93.50;;;;;;4990543;28;20821;-51
2021/01/22 12:34:11;;;;;;;0.77;0.63;;;12.40;93.30;;;;;;4990292;28;20450;-51
2021/01/22 12:36:37;;;;;;;1.63;0.60;;;12.50;93.30;;;;;;4990687;28;20479;-51
2021/01/22 12:39:06;;;;;;;0.70;0.50;;;12.40;93.20;;;;;;4970777;28;20607;-51
2021/01/22 12:41:34;;;;;;;0.70;0.47;;;12.40;92.90;;;;;;4970334;28;21123;-51
2021/01/22 12:44:00;;;;;;;1.10;0.60;;;12.30;93.00;;;;;;4969779;28;20484;-50
2021/01/22 12:46:27;;;;;;;1.57;0.60;;;12.30;93.00;;;;;;4977643;28;20829;-50
2021/01/22 12:48:54;;;;;;;0.60;0.60;;;12.30;93.00;;;;;;4976926;28;20470;-50
2021/01/22 12:51:20;;;;;;;0.60;0.60;;;12.20;93.20;;;;;;4980132;28;20451;-51
2021/01/22 12:53:47;;;;;;;1.10;0.70;;;12.10;93.40;;;;;;4974261;28;20458;-51
2021/01/22 12:56:14;;;;;;;1.07;0.70;;;12.00;93.50;;;;;;4974382;28;20458;-51
2021/01/22 12:58:43;;;;;;;0.80;0.70;;;12.00;93.50;;;;;;4974249;28;20844;-50